createdAt,value
2023-04-12T00:08:54.042Z,9.63
2023-04-12T00:21:48.329Z,9.49
2023-04-12T00:34:47.375Z,9.37
2023-04-12T00:40:32.459Z,9.48
2023-04-12T00:46:47.620Z,9.36
2023-04-12T00:58:56.240Z,9.25
2023-04-12T01:04:44.331Z,9.19
2023-04-12T01:10:31.183Z,9.28
2023-04-12T01:16:36.628Z,9.39
2023-04-12T01:22:52.648Z,9.24
2023-04-12T01:37:11.889Z,9.57
2023-04-12T01:50:24.944Z,9.35
2023-04-12T03:43:59.381Z,8.57
2023-04-12T04:04:40.432Z,8.36
2023-04-12T04:10:33.404Z,8.01
2023-04-12T04:16:48.505Z,8.03
2023-04-12T04:31:00.605Z,7.62
2023-04-12T04:36:12.155Z,7.51
2023-04-12T05:31:59.448Z,7.13
2023-04-12T05:53:46.553Z,8.13
2023-04-12T06:05:45.508Z,8.89
2023-04-12T06:26:38.816Z,8.18
2023-04-12T06:54:25.625Z,9.64
2023-04-12T07:07:40.229Z,9.37
2023-04-12T07:13:43.498Z,10.12
2023-04-12T07:19:42.178Z,9.33
2023-04-12T07:25:29.241Z,9.44
2023-04-12T07:31:19.285Z,9.27
2023-04-12T07:37:08.593Z,9.65
2023-04-12T07:44:39.294Z,10.99
2023-04-12T07:50:26.349Z,11.77
2023-04-12T07:56:24.246Z,12.64
2023-04-12T08:02:27.502Z,13.43
2023-04-12T08:08:14.929Z,12.92
2023-04-12T08:14:02.026Z,13.22
2023-04-12T08:19:50.695Z,13.77
2023-04-12T08:25:38.721Z,13.98
2023-04-12T08:31:38.786Z,12.99
2023-04-12T08:37:29.958Z,12.71
2023-04-12T08:43:19.068Z,11.81
2023-04-12T08:49:06.521Z,11.32
2023-04-12T08:54:55.173Z,10.30
2023-04-12T09:00:50.509Z,10.41
2023-04-12T09:07:05.098Z,11.14
2023-04-12T09:12:56.206Z,11.82
2023-04-12T09:19:01.395Z,12.68
2023-04-12T09:32:50.694Z,13.41
2023-04-12T09:45:43.755Z,13.16
2023-04-12T09:51:36.999Z,13.58
2023-04-12T09:57:37.480Z,13.28
2023-04-12T10:03:39.180Z,13.68
2023-04-12T10:10:12.853Z,13.39
2023-04-12T10:16:16.878Z,13.84
2023-04-12T10:22:03.796Z,13.27
2023-04-12T10:27:50.673Z,12.79
2023-04-12T10:33:38.550Z,12.41
2023-04-12T10:39:38.054Z,12.54
2023-04-12T10:45:24.967Z,12.71
2023-04-12T10:51:16.011Z,13.31
2023-04-12T10:57:07.185Z,13.41
2023-04-12T11:09:37.346Z,13.78
2023-04-12T11:16:15.523Z,13.35
2023-04-12T11:23:26.150Z,12.61
2023-04-12T11:29:51.487Z,12.91
2023-04-12T11:36:01.704Z,12.51
2023-04-12T11:49:30.054Z,12.74
2023-04-12T12:02:24.410Z,11.92
2023-04-12T12:08:16.836Z,11.31
2023-04-12T12:14:04.748Z,11.12
2023-04-12T12:19:51.651Z,10.34
2023-04-12T12:25:41.622Z,10.07
2023-04-12T12:31:39.745Z,10.53
2023-04-12T12:37:28.873Z,10.86
2023-04-12T12:43:20.704Z,11.09
2023-04-12T12:49:07.640Z,11.18
2023-04-12T12:54:54.730Z,11.47
2023-04-12T13:00:42.122Z,11.61
2023-04-12T13:06:40.724Z,11.22
2023-04-12T13:13:15.543Z,10.52
2023-04-12T13:19:02.365Z,10.73
2023-04-12T13:24:52.021Z,10.73
2023-04-12T13:30:38.914Z,10.15
2023-04-12T13:36:26.803Z,9.91
2023-04-12T13:42:13.739Z,9.78
2023-04-12T13:48:01.181Z,9.71
2023-04-12T13:53:51.199Z,9.64
2023-04-12T13:59:38.288Z,9.41
2023-04-12T14:05:28.230Z,8.96
2023-04-12T14:11:15.297Z,8.65
2023-04-12T14:17:03.307Z,8.39
2023-04-12T14:22:50.749Z,8.20
2023-04-12T14:28:38.740Z,7.97
2023-04-12T14:34:54.571Z,7.67
2023-04-12T14:40:41.621Z,7.70
2023-04-12T14:46:28.909Z,8.22
2023-04-12T14:52:16.122Z,8.16
2023-04-12T14:58:14.063Z,8.13
2023-04-12T15:04:32.610Z,7.99
2023-04-12T15:10:18.253Z,7.96
2023-04-12T15:16:17.075Z,7.99
2023-04-12T15:30:51.142Z,7.84
2023-04-12T15:43:36.623Z,7.67
2023-04-12T15:49:25.507Z,7.52
2023-04-12T15:55:15.083Z,7.69
2023-04-12T16:01:02.660Z,7.66
2023-04-12T16:06:56.877Z,7.69
2023-04-12T16:12:44.785Z,7.99
2023-04-12T16:18:31.679Z,8.04
2023-04-12T16:24:18.851Z,8.31
2023-04-12T16:30:06.646Z,8.31
2023-04-12T16:35:53.906Z,8.69
2023-04-12T16:41:43.815Z,8.87
2023-04-12T16:47:34.311Z,8.93
2023-04-12T16:53:21.146Z,8.89
2023-04-12T16:59:09.688Z,8.91
2023-04-12T17:04:56.556Z,9.04
2023-04-12T17:10:46.881Z,9.14
2023-04-12T17:16:34.110Z,9.27
2023-04-12T17:22:21.146Z,9.15
2023-04-12T17:28:09.835Z,9.24
2023-04-12T17:33:57.228Z,9.26
2023-04-12T17:39:44.492Z,9.22
2023-04-12T17:45:31.832Z,9.21
2023-04-12T17:51:19.004Z,9.25
2023-04-12T17:57:05.825Z,9.02
2023-04-12T18:02:52.922Z,9.03
2023-04-12T18:08:39.908Z,9.14
2023-04-12T18:14:26.977Z,9.22
2023-04-12T18:20:14.164Z,8.78
2023-04-12T18:26:01.300Z,8.75
2023-04-12T18:31:48.406Z,8.67
2023-04-12T18:37:35.420Z,8.85
2023-04-12T18:43:34.555Z,8.83
2023-04-12T18:49:57.884Z,8.72
2023-04-12T18:56:13.919Z,8.61
2023-04-12T19:02:00.767Z,8.38
2023-04-12T19:07:48.975Z,8.33
2023-04-12T19:13:37.190Z,8.14
2023-04-12T19:19:24.069Z,8.24
2023-04-12T19:25:11.103Z,8.05
2023-04-12T19:30:58.845Z,8.03
2023-04-12T19:36:47.778Z,8.07
2023-04-12T19:42:35.514Z,7.88
2023-04-12T19:48:28.318Z,7.93
2023-04-12T19:54:16.302Z,8.17
2023-04-12T20:00:05.152Z,8.30
2023-04-12T20:05:53.745Z,8.20
2023-04-12T20:11:42.341Z,8.25
2023-04-12T20:17:29.211Z,8.31
2023-04-12T20:23:16.088Z,8.48
2023-04-12T20:29:07.100Z,8.46
2023-04-12T20:34:57.978Z,8.41
2023-04-12T20:40:45.506Z,8.58
2023-04-12T20:46:48.544Z,8.44
2023-04-12T20:52:58.689Z,8.50
2023-04-12T20:59:29.085Z,8.35
2023-04-12T21:05:45.628Z,8.34
2023-04-12T21:12:15.074Z,8.50
2023-04-12T21:18:02.380Z,8.36
2023-04-12T21:23:49.252Z,8.58
2023-04-12T21:29:41.531Z,8.47
2023-04-12T21:35:30.276Z,8.33
2023-04-12T21:41:22.631Z,8.44
2023-04-12T21:54:41.639Z,8.30
2023-04-12T22:00:32.156Z,8.13
2023-04-12T22:06:20.428Z,8.08
2023-04-12T22:12:11.243Z,8.07
2023-04-12T22:18:04.875Z,8.24
2023-04-12T22:31:50.749Z,8.10
2023-04-12T22:38:10.620Z,8.15
2023-04-12T22:44:22.293Z,8.11
2023-04-12T22:50:40.408Z,8.15
2023-04-12T22:57:09.771Z,8.00
2023-04-12T23:02:57.004Z,8.29
2023-04-12T23:08:44.839Z,8.28
2023-04-12T23:14:36.151Z,8.38
2023-04-12T23:20:28.344Z,8.38
2023-04-12T23:26:15.932Z,8.29
2023-04-12T23:32:02.731Z,8.30
2023-04-12T23:37:49.724Z,8.04
2023-04-12T23:43:38.961Z,8.10
2023-04-12T23:49:28.116Z,8.13
2023-04-12T23:55:18.130Z,8.14
